Amo, Colorado
Current Conditions -  °F | °C
As of 1:13 AM on Thursday 29 Jan 2015 (Local Time) from KFLY Reporting Station
Clear Clear  
Wind Chill: 24°   Ceiling: Unl
Heat Index: 32°   Visibility: 10mi
Dew Point: 25°   Wind: 9mph
Humidity: 76%   Direction: 340°NNW
Pressure: 30.37"   Gusts: NA
Location:  39.0051°N, 104.503°W
Report Text: KFLY 290813Z AUTO 34008KT 10SM CLR 00/M04 A3037 RMK AO2 T00001037
Loading
Personal Weather Stations






























Interactive Weather Map New forecast layout! Learn more

10-Day Weather Forecast

Advertisements
Track Severe Weather on mobile